Wauchula, Florida
Current Conditions -  °F | °C
As of 2:50 PM on Friday 24 Oct 2014 (Local Time) from KBOW Reporting Station
Broken Clouds Broken Clouds  
Wind Chill: 81°   Ceiling: 4800
Heat Index: 81°   Visibility: 10mi
Dew Point: 57°   Wind: 12mph
Humidity: 45%   Direction: 20°NNE
Pressure: 29.93"   Gusts: NA
Location:  27.55°N, 81.81°W
Report Text: KBOW 241850Z 02010KT 10SM BKN048 27/14 A2993
Loading
Personal Weather Stations






























Interactive Weather Map
Tropical Storm Tracking
New forecast layout! Learn more

10-Day Weather Forecast

Advertisements
Track Severe Weather on mobile